Time;durP1;ratioP1;P1;durP2;ratioP2;P2;SDS_P1;SDS_P2;PMS_P1;PMS_P2;Temp;Humidity;BMP_temperature;BMP_pressure;BME280_temperature;BME280_humidity;BME280_pressure;Samples;Min_cycle;Max_cycle;Signal;HPM_P1;HPM_P2
2022/05/21 00:02:08;;;;;;;5.95;5.15;;;;;;;;;;4989349;28;20035;-68
2022/05/21 00:04:36;;;;;;;6.20;5.63;;;;;;;;;;4986117;28;20129;-68
2022/05/21 00:07:03;;;;;;;5.63;5.05;;;;;;;;;;4987018;28;20522;-67
2022/05/21 00:09:29;;;;;;;6.82;4.97;;;;;;;;;;4987807;28;20038;-67
2022/05/21 00:11:55;;;;;;;9.27;5.82;;;;;;;;;;4988197;28;20038;-69
2022/05/21 00:14:21;;;;;;;6.15;5.65;;;;;;;;;;4987476;28;20019;-67
2022/05/21 00:16:48;;;;;;;4.68;4.38;;;;;;;;;;4988248;28;20042;-68
2022/05/21 00:19:14;;;;;;;8.00;4.93;;;;;;;;;;4984461;28;20045;-67
2022/05/21 00:21:40;;;;;;;5.90;5.40;;;20.30;91.40;;;;;;4987369;28;20389;-68
2022/05/21 00:24:06;;;;;;;5.43;4.72;;;;;;;;;;4986769;28;20019;-67
2022/05/21 00:26:32;;;;;;;7.28;4.85;;;;;;;;;;4988016;28;20042;-67
2022/05/21 00:28:58;;;;;;;4.80;4.38;;;;;;;;;;4988600;28;20030;-68
2022/05/21 00:31:24;;;;;;;6.28;4.70;;;;;;;;;;4987214;28;20130;-68
2022/05/21 00:33:50;;;;;;;6.97;5.65;;;;;;;;;;4986629;28;20026;-67
2022/05/21 00:36:16;;;;;;;5.88;4.30;;;;;;;;;;4987243;28;20023;-67
2022/05/21 00:38:42;;;;;;;5.82;5.03;;;;;;;;;;4986325;28;20030;-67
2022/05/21 00:41:10;;;;;;;11.57;5.00;;;;;;;;;;4987054;28;20030;-67
2022/05/21 00:43:47;;;;;;;4.75;4.35;;;;;;;;;;4984933;28;20046;-68
2022/05/21 00:46:13;;;;;;;;;;;;;;;;;;4986990;28;20034;-68
2022/05/21 00:48:39;;;;;;;4.85;4.32;;;19.30;77.40;;;;;;4985702;28;19925;-68
2022/05/21 00:51:08;;;;;;;4.57;3.95;;;;;;;;;;4986223;28;20031;-67
2022/05/21 00:53:34;;;;;;;4.25;3.85;;;;;;;;;;4987309;28;20563;-67
2022/05/21 00:56:00;;;;;;;6.97;4.53;;;;;;;;;;4987533;28;20026;-67
2022/05/21 01:01:16;;;;;;;3.08;2.78;;;;;;;;;;4985582;28;20122;-67
2022/05/21 01:03:43;;;;;;;;;;;;;;;;;;4986781;28;20050;-68
2022/05/21 01:06:10;;;;;;;4.63;3.42;;;19.00;86.30;;;;;;4986728;28;20272;-67
2022/05/21 01:08:37;;;;;;;15.40;3.85;;;;;;;;;;4987495;28;20050;-67
2022/05/21 01:11:06;;;;;;;9.32;3.95;;;;;;;;;;4987931;28;20054;-67
2022/05/21 01:13:34;;;;;;;6.35;4.18;;;19.10;79.30;;;;;;4985981;28;20072;-67
2022/05/21 01:16:00;;;;;;;3.55;3.15;;;19.30;79.30;;;;;;4986084;28;20026;-68
2022/05/21 01:18:27;;;;;;;3.92;3.38;;;;;;;;;;4986565;28;20117;-68
2022/05/21 01:20:54;;;;;;;5.55;3.35;;;;;;;;;;4987630;28;20030;-69
2022/05/21 01:23:20;;;;;;;4.28;3.67;;;;;;;;;;4987543;28;20030;-68
2022/05/21 01:25:48;;;;;;;3.85;3.50;;;;;;;;;;4986181;28;20026;-68
2022/05/21 01:28:15;;;;;;;5.45;3.80;;;;;;;;;;4984678;28;20559;-67
2022/05/21 01:30:42;;;;;;;4.28;3.67;;;;;;;;;;4984933;28;20023;-68
2022/05/21 01:33:08;;;;;;;;;;;;;;;;;;4987329;28;20486;-67
2022/05/21 01:35:34;;;;;;;4.10;3.70;;;;;;;;;;4986581;28;19967;-68
2022/05/21 01:38:01;;;;;;;4.07;3.67;;;;;;;;;;4986796;28;20485;-67
2022/05/21 01:40:27;;;;;;;4.30;3.90;;;;;;;;;;4985333;28;20144;-68
2022/05/21 01:45:38;;;;;;;5.60;4.32;;;;;;;;;;4984729;28;20407;-68
2022/05/21 01:48:04;;;;;;;5.30;3.42;;;;;;;;;;4986081;28;20042;-67
2022/05/21 01:50:31;;;;;;;5.37;4.13;;;;;;;;;;4986030;28;20019;-68
2022/05/21 01:52:57;;;;;;;5.38;4.43;;;;;;;;;;4986970;28;20474;-68
2022/05/21 01:55:23;;;;;;;5.65;4.07;;;;;;;;;;4983249;28;20034;-68
2022/05/21 01:57:50;;;;;;;6.38;3.45;;;;;;;;;;4983854;28;20078;-67
2022/05/21 02:00:16;;;;;;;4.32;3.55;;;18.80;95.20;;;;;;4985932;28;20038;-68
2022/05/21 02:02:43;;;;;;;5.20;3.53;;;;;;;;;;4986100;28;20069;-68
2022/05/21 02:05:09;;;;;;;5.22;3.97;;;18.80;84.10;;;;;;4986972;28;20266;-68
2022/05/21 02:07:35;;;;;;;4.90;4.05;;;;;;;;;;4984083;28;20046;-67
2022/05/21 02:10:01;;;;;;;6.95;3.92;;;;;;;;;;4983416;28;20049;-68
2022/05/21 02:12:27;;;;;;;4.43;4.03;;;;;;;;;;4985405;28;20423;-68
2022/05/21 02:14:57;;;;;;;10.93;5.18;;;18.90;83.80;;;;;;4985863;28;20030;-68
2022/05/21 02:17:23;;;;;;;7.30;4.15;;;;;;;;;;4984984;28;20050;-66
2022/05/21 02:19:49;;;;;;;7.30;3.80;;;18.80;84.50;;;;;;4986530;28;20458;-68
2022/05/21 02:22:15;;;;;;;5.25;3.33;;;19.00;83.90;;;;;;4983844;28;20026;-67
2022/05/21 02:24:42;;;;;;;5.97;4.10;;;;;;;;;;4984732;28;20420;-67
2022/05/21 02:27:11;;;;;;;4.93;4.00;;;;;;;;;;4984874;28;20069;-68
2022/05/21 02:29:38;;;;;;;10.00;4.53;;;;;;;;;;4985860;28;20033;-68
2022/05/21 02:32:04;;;;;;;7.22;3.83;;;;;;;;;;4985173;28;20030;-68
2022/05/21 02:34:31;;;;;;;7.90;4.00;;;;;;;;;;4982894;28;20034;-67
2022/05/21 02:39:41;;;;;;;5.55;3.97;;;19.10;95.40;;;;;;4984369;28;20050;-67
2022/05/21 02:42:43;;;;;;;4.45;3.63;;;19.00;92.90;;;;;;4985657;28;20500;-67
2022/05/21 02:44:53;;;;;;;9.90;4.85;;;;;;;;;;4984538;28;20030;-67
2022/05/21 02:47:19;;;;;;;4.80;4.28;;;19.10;96.90;;;;;;4985417;28;20037;-68
2022/05/21 02:49:45;;;;;;;6.47;4.63;;;;;;;;;;4984079;28;20030;-67
2022/05/21 02:52:11;;;;;;;7.75;3.72;;;;;;;;;;4986118;28;20027;-67
2022/05/21 02:54:37;;;;;;;5.50;4.68;;;;;;;;;;4984369;28;20030;-68
2022/05/21 02:57:03;;;;;;;7.60;4.30;;;;;;;;;;4984415;28;20112;-68
2022/05/21 02:59:29;;;;;;;7.63;5.10;;;18.70;97.60;;;;;;4984794;28;20515;-68
2022/05/21 03:01:55;;;;;;;10.02;5.47;;;;;;;;;;4985962;28;20073;-68
2022/05/21 03:04:22;;;;;;;5.55;4.13;;;;;;;;;;4982674;28;20030;-68
2022/05/21 03:06:48;;;;;;;7.55;5.22;;;;;;;;;;4982956;28;20053;-68
2022/05/21 03:11:58;;;;;;;6.78;3.80;;;;;;;;;;4985207;28;20153;-67
2022/05/21 03:14:24;;;;;;;12.57;5.25;;;18.30;98.90;;;;;;4985786;28;20531;-68
2022/05/21 03:16:49;;;;;;;9.90;4.45;;;18.30;99.10;;;;;;4985267;28;20042;-67
2022/05/21 03:19:15;;;;;;;9.77;4.20;;;;;;;;;;4984157;28;20023;-67
2022/05/21 03:21:41;;;;;;;5.95;4.80;;;;;;;;;;4986091;28;20061;-69
2022/05/21 03:24:08;;;;;;;4.78;4.28;;;18.30;93.50;;;;;;4984884;28;20023;-70
2022/05/21 03:26:34;;;;;;;6.43;4.78;;;18.40;96.00;;;;;;4984530;28;20045;-68
2022/05/21 03:29:00;;;;;;;5.47;3.70;;;;;;;;;;4985307;28;20092;-67
2022/05/21 03:31:26;;;;;;;4.85;4.10;;;;;;;;;;4982677;28;20034;-68
2022/05/21 03:33:52;;;;;;;4.95;4.45;;;;;;;;;;4983397;28;20029;-67
2022/05/21 03:36:18;;;;;;;7.60;3.78;;;;;;;;;;4983833;28;20023;-68
2022/05/21 03:38:44;;;;;;;6.53;4.40;;;;;;;;;;4984658;28;20030;-67
2022/05/21 03:41:10;;;;;;;7.57;4.57;;;;;;;;;;4985855;28;20475;-68
2022/05/21 03:43:36;;;;;;;6.10;4.10;;;;;;;;;;4981972;28;20060;-68
2022/05/21 03:46:04;;;;;;;5.03;4.03;;;;;;;;;;4982627;28;20033;-67
2022/05/21 03:48:30;;;;;;;5.45;4.00;;;;;;;;;;4983970;28;20045;-67
2022/05/21 03:50:56;;;;;;;5.43;4.38;;;;;;;;;;4984706;28;20030;-67
2022/05/21 03:53:22;;;;;;;6.85;4.50;;;;;;;;;;4983679;28;20454;-67
2022/05/21 03:55:48;;;;;;;3.83;3.50;;;;;;;;;;4983661;28;20030;-68
2022/05/21 03:58:15;;;;;;;8.77;4.70;;;;;;;;;;4982587;28;20760;-67
2022/05/21 04:00:41;;;;;;;11.43;4.68;;;;;;;;;;4983944;28;20455;-68
2022/05/21 04:03:07;;;;;;;4.35;3.55;;;;;;;;;;4984502;28;20023;-68
2022/05/21 04:05:33;;;;;;;5.55;4.90;;;;;;;;;;4984439;28;20060;-68
2022/05/21 04:07:59;;;;;;;3.80;2.97;;;18.50;98.50;;;;;;4984868;28;20034;-67
2022/05/21 04:10:26;;;;;;;9.88;4.32;;;;;;;;;;4982769;28;20472;-67
2022/05/21 04:12:52;;;;;;;6.57;4.40;;;;;;;;;;4981827;28;20125;-67
2022/05/21 04:15:18;;;;;;;4.70;4.20;;;;;;;;;;4984075;28;20035;-67
2022/05/21 04:17:44;;;;;;;6.75;4.22;;;;;;;;;;4987530;28;20519;-68
2022/05/21 04:20:11;;;;;;;9.52;4.50;;;;;;;;;;4988210;28;20491;-67
2022/05/21 04:22:39;;;;;;;4.00;3.70;;;18.80;91.60;;;;;;4986340;28;20030;-68
2022/05/21 04:25:06;;;;;;;4.95;3.55;;;;;;;;;;4985734;28;20662;-68
2022/05/21 04:27:32;;;;;;;6.05;3.97;;;;;;;;;;4986956;28;20122;-68
2022/05/21 04:29:58;;;;;;;6.80;3.83;;;;;;;;;;4987533;28;20459;-67
2022/05/21 04:32:24;;;;;;;6.30;4.55;;;;;;;;;;4987082;28;20023;-68
2022/05/21 04:34:50;;;;;;;5.90;3.58;;;;;;;;;;4986495;28;20026;-68
2022/05/21 04:37:16;;;;;;;12.40;4.43;;;;;;;;;;4985702;28;20079;-68
2022/05/21 04:39:42;;;;;;;5.93;3.45;;;;;;;;;;4984978;28;20113;-68
2022/05/21 04:42:08;;;;;;;6.68;5.18;;;;;;;;;;4986435;28;20082;-67
2022/05/21 04:44:35;;;;;;;8.27;4.43;;;;;;;;;;4988197;28;20034;-67
2022/05/21 04:47:02;;;;;;;4.65;3.58;;;;;;;;;;4987734;28;20037;-67
2022/05/21 04:49:28;;;;;;;9.65;4.93;;;;;;;;;;4985371;28;20053;-68
2022/05/21 04:51:54;;;;;;;9.10;3.85;;;;;;;;;;4985903;28;20515;-67
2022/05/21 04:54:20;;;;;;;10.02;4.53;;;;;;;;;;4986312;28;20041;-68
2022/05/21 04:56:46;;;;;;;5.25;4.22;;;;;;;;;;4987519;28;20030;-68
2022/05/21 04:59:13;;;;;;;6.30;3.72;;;;;;;;;;4988458;28;20515;-67
2022/05/21 05:01:39;;;;;;;5.18;4.07;;;19.30;90.80;;;;;;4985014;28;20038;-68
2022/05/21 05:04:06;;;;;;;9.23;4.55;;;;;;;;;;4986975;28;20042;-68
2022/05/21 05:06:31;;;;;;;10.20;5.07;;;19.50;99.90;;;;;;4986911;28;20575;-68
2022/05/21 05:08:57;;;;;;;5.63;4.18;;;;;;;;;;4987597;28;20058;-67
2022/05/21 05:11:23;;;;;;;10.52;6.00;;;;;;;;;;4986862;28;20022;-68
2022/05/21 05:13:49;;;;;;;12.70;6.15;;;19.80;99.90;;;;;;4986781;28;20045;-68
2022/05/21 05:16:15;;;;;;;13.77;6.07;;;;;;;;;;4984386;28;20027;-68
2022/05/21 05:18:41;;;;;;;10.45;5.68;;;;;;;;;;4984940;28;20031;-67
2022/05/21 05:21:08;;;;;;;8.63;6.30;;;;;;;;;;4986415;28;20342;-67
2022/05/21 05:23:33;;;;;;;9.82;6.22;;;19.70;99.90;;;;;;4986794;28;20136;-68
2022/05/21 05:25:59;;;;;;;9.60;5.93;;;20.00;99.90;;;;;;4987097;28;20467;-68
2022/05/21 05:28:26;;;;;;;14.15;6.18;;;;;;;;;;4984156;28;20034;-67
2022/05/21 05:30:53;;;;;;;10.07;5.67;;;;;;;;;;4985136;28;20400;-67
2022/05/21 05:33:20;;;;;;;8.15;6.00;;;20.20;95.50;;;;;;4986169;28;20719;-68
2022/05/21 05:35:48;;;;;;;11.38;6.55;;;;;;;;;;4987623;28;20023;-68
2022/05/21 05:38:15;;;;;;;7.57;5.45;;;;;;;;;;4987753;28;20054;-68
2022/05/21 05:40:45;;;;;;;10.50;5.40;;;;;;;;;;4984867;28;20074;-67
2022/05/21 05:43:11;;;;;;;13.18;5.13;;;;;;;;;;4984128;28;20043;-68
2022/05/21 05:45:37;;;;;;;6.65;4.72;;;;;;;;;;4984849;28;20540;-68
2022/05/21 05:48:03;;;;;;;7.13;4.43;;;;;;;;;;4985893;28;20069;-68
2022/05/21 05:50:29;;;;;;;12.35;4.82;;;;;;;;;;4986316;28;20034;-67
2022/05/21 05:52:59;;;;;;;7.45;4.97;;;;;;;;;;4986711;28;20022;-69
2022/05/21 05:55:25;;;;;;;7.35;4.55;;;;;;;;;;4983096;28;20030;-69
2022/05/21 05:57:52;;;;;;;8.70;3.72;;;;;;;;;;4984922;28;20023;-68
2022/05/21 06:00:20;;;;;;;7.55;3.72;;;;;;;;;;4985699;28;20038;-69
2022/05/21 06:02:58;;;;;;;5.93;4.20;;;;;;;;;;4986386;28;20181;-69
2022/05/21 06:05:24;;;;;;;6.13;4.57;;;;;;;;;;4985614;28;20056;-66
2022/05/21 06:07:55;;;;;;;6.13;4.47;;;;;;;;;;4985785;28;20085;-69
2022/05/21 06:10:23;;;;;;;7.30;5.25;;;;;;;;;;4985027;28;21089;-70
2022/05/21 06:12:49;;;;;;;4.90;4.28;;;;;;;;;;4985272;28;20036;-68
2022/05/21 06:15:15;;;;;;;7.32;4.38;;;;;;;;;;4986418;28;20038;-71
2022/05/21 06:17:42;;;;;;;5.57;4.95;;;;;;;;;;4986996;28;20038;-67
2022/05/21 06:20:14;;;;;;;6.97;4.93;;;21.40;92.50;;;;;;4984644;28;20033;-68
2022/05/21 06:22:40;;;;;;;10.35;5.00;;;;;;;;;;4984780;28;20305;-69
2022/05/21 06:25:06;;;;;;;6.97;5.07;;;;;;;;;;4984825;28;20027;-68
2022/05/21 06:27:32;;;;;;;5.75;4.68;;;;;;;;;;4985766;28;20054;-68
2022/05/21 06:29:58;;;;;;;8.57;5.18;;;;;;;;;;4986234;28;20064;-68
2022/05/21 06:32:24;;;;;;;4.50;4.10;;;;;;;;;;4986090;28;20030;-67
2022/05/21 06:34:50;;;;;;;5.80;5.00;;;;;;;;;;4985232;28;20518;-67
2022/05/21 06:37:16;;;;;;;4.82;4.28;;;;;;;;;;4983621;28;20037;-68
2022/05/21 06:39:43;;;;;;;5.40;4.22;;;;;;;;;;4983373;28;20035;-68
2022/05/21 06:42:10;;;;;;;6.78;5.00;;;21.30;92.40;;;;;;4985064;28;20101;-68
2022/05/21 06:44:35;;;;;;;10.20;4.13;;;21.30;99.90;;;;;;4984589;28;20042;-69
2022/05/21 06:47:01;;;;;;;6.38;5.15;;;;;;;;;;4984553;28;20105;-68
2022/05/21 06:49:27;;;;;;;7.25;5.63;;;;;;;;;;4982821;28;20097;-67
2022/05/21 06:51:54;;;;;;;6.07;4.60;;;21.50;92.10;;;;;;4984167;28;20045;-67
2022/05/21 06:54:21;;;;;;;5.25;4.43;;;;;;;;;;4985881;28;20022;-68
2022/05/21 06:56:47;;;;;;;7.13;4.57;;;;;;;;;;5000077;28;20503;-68
2022/05/21 06:59:13;;;;;;;5.93;4.78;;;;;;;;;;4987555;28;20407;-67
2022/05/21 07:01:41;;;;;;;3.88;3.20;;;21.40;98.50;;;;;;4983376;28;20026;-67
2022/05/21 07:04:07;;;;;;;6.00;4.57;;;;;;;;;;4981656;28;20524;-68
2022/05/21 07:09:18;;;;;;;5.45;4.28;;;;;;;;;;4985863;28;20122;-67
2022/05/21 07:11:44;;;;;;;5.63;3.88;;;;;;;;;;4986593;28;20613;-67
2022/05/21 07:14:10;;;;;;;6.70;4.07;;;;;;;;;;4971086;28;20070;-68
2022/05/21 07:16:36;;;;;;;13.50;4.78;;;;;;;;;;4983891;28;20089;-68
2022/05/21 07:19:02;;;;;;;6.25;3.88;;;;;;;;;;4983618;28;20030;-68
2022/05/21 07:21:28;;;;;;;7.30;3.80;;;;;;;;;;4985021;28;20027;-67
2022/05/21 07:23:54;;;;;;;5.63;3.80;;;;;;;;;;4986641;28;20022;-68
2022/05/21 07:26:20;;;;;;;12.07;4.70;;;22.10;99.80;;;;;;4984463;28;20952;-67
2022/05/21 07:28:46;;;;;;;7.65;3.60;;;;;;;;;;4984861;28;20061;-67
2022/05/21 07:31:12;;;;;;;10.52;3.85;;;;;;;;;;4984330;28;20031;-68
2022/05/21 07:33:38;;;;;;;11.15;4.30;;;;;;;;;;4985232;28;20046;-68
2022/05/21 07:36:04;;;;;;;5.50;3.65;;;22.70;99.00;;;;;;4985852;28;20117;-68
2022/05/21 07:38:30;;;;;;;8.55;2.95;;;23.00;98.70;;;;;;4985707;28;20030;-67
2022/05/21 07:40:56;;;;;;;5.70;3.20;;;;;;;;;;4984670;28;20030;-68
2022/05/21 07:43:30;;;;;;;4.15;3.38;;;;;;;;;;4983547;28;20576;-67
2022/05/21 07:45:56;;;;;;;4.80;3.42;;;;;;;;;;4983020;28;20113;-68
2022/05/21 07:48:23;;;;;;;4.57;3.20;;;;;;;;;;4983463;28;20068;-68
2022/05/21 07:50:50;;;;;;;4.53;2.38;;;;;;;;;;4985283;28;20273;-68
2022/05/21 07:53:16;;;;;;;;;;;;;;;;;;4990774;28;20712;-69
2022/05/21 07:55:43;;;;;;;4.70;2.97;;;;;;;;;;4988515;28;19913;-69
2022/05/21 07:58:10;;;;;;;6.85;2.80;;;24.40;81.70;;;;;;4987491;28;20030;-68
2022/05/21 08:00:36;;;;;;;5.40;2.85;;;;;;;;;;4988344;28;20029;-69
2022/05/21 08:03:02;;;;;;;6.83;2.77;;;;;;;;;;4989068;28;20041;-69
2022/05/21 08:05:29;;;;;;;4.40;2.53;;;;;;;;;;4988105;28;20030;-68
2022/05/21 08:07:55;;;;;;;5.10;3.17;;;;;;;;;;4987820;28;20046;-68
2022/05/21 08:10:22;;;;;;;5.05;2.67;;;;;;;;;;4986107;28;20435;-67
2022/05/21 08:12:49;;;;;;;7.05;2.75;;;24.40;82.10;;;;;;4986784;28;20066;-68
2022/05/21 08:15:16;;;;;;;4.55;2.67;;;;;;;;;;4989402;28;20034;-68
2022/05/21 08:17:42;;;;;;;5.50;2.60;;;24.90;95.00;;;;;;4988886;28;20158;-69
2022/05/21 08:20:11;;;;;;;3.83;2.47;;;;;;;;;;4988228;28;20034;-69
2022/05/21 08:28:06;;;;;;;6.93;2.40;;;;;;;;;;4986449;28;20097;-68
2022/05/21 08:30:32;;;;;;;2.67;1.88;;;;;;;;;;4987355;28;20101;-68
2022/05/21 08:33:04;;;;;;;3.25;2.28;;;30.80;62.40;;;;;;4988489;28;20498;-69
2022/05/21 08:35:30;;;;;;;5.32;2.80;;;;;;;;;;4988645;28;20019;-68
2022/05/21 08:37:56;;;;;;;4.13;2.10;;;;;;;;;;4988220;28;20026;-69
2022/05/21 08:40:28;;;;;;;6.55;3.00;;;33.50;54.10;;;;;;4986681;28;20505;-69
2022/05/21 08:42:58;;;;;;;4.60;2.17;;;34.00;70.20;;;;;;4986762;28;20548;-69
2022/05/21 08:45:28;;;;;;;6.85;1.75;;;34.30;61.00;;;;;;4987747;28;20096;-69
2022/05/21 08:48:07;;;;;;;4.40;1.77;;;34.60;50.00;;;;;;4987297;28;20058;-69
2022/05/21 08:50:34;;;;;;;3.78;1.55;;;;;;;;;;4986865;28;20606;-69
2022/05/21 08:53:21;;;;;;;2.97;2.28;;;36.00;46.70;;;;;;4988717;28;20034;-69
2022/05/21 08:55:49;;;;;;;7.20;2.17;;;;;;;;;;4986715;28;20065;-69
2022/05/21 08:58:40;;;;;;;6.20;2.40;;;35.60;46.10;;;;;;4985828;28;20035;-69
2022/05/21 09:01:09;;;;;;;6.03;2.63;;;35.80;46.40;;;;;;4986156;28;20033;-69
2022/05/21 09:03:35;;;;;;;3.45;2.00;;;;;;;;;;4986464;28;20076;-69
2022/05/21 09:06:12;;;;;;;10.90;2.15;;;36.20;52.70;;;;;;4988464;28;20046;-69
2022/05/21 09:08:59;;;;;;;6.63;2.60;;;36.30;53.50;;;;;;4987753;28;20046;-69
2022/05/21 09:11:36;;;;;;;6.97;2.25;;;36.00;44.40;;;;;;4987651;28;20376;-69
2022/05/21 09:14:15;;;;;;;3.50;2.22;;;35.80;62.20;;;;;;4988428;28;20022;-69
2022/05/21 09:16:54;;;;;;;5.90;2.17;;;36.00;47.70;;;;;;4985137;28;20022;-69
2022/05/21 09:19:35;;;;;;;5.82;2.97;;;36.40;44.20;;;;;;4985812;28;20081;-69
2022/05/21 09:22:07;;;;;;;6.35;2.55;;;35.90;44.50;;;;;;4985710;28;20041;-69
2022/05/21 09:24:33;;;;;;;3.40;2.17;;;;;;;;;;4986646;28;20066;-69
2022/05/21 09:26:59;;;;;;;4.15;2.38;;;36.30;61.50;;;;;;4986779;28;20104;-69
2022/05/21 09:29:28;;;;;;;6.95;3.28;;;;;;;;;;4987004;28;20018;-70
2022/05/21 09:31:57;;;;;;;5.25;2.97;;;;;;;;;;4984510;28;20046;-69
2022/05/21 09:34:35;;;;;;;9.32;2.72;;;37.20;43.30;;;;;;4983756;28;20110;-69
2022/05/21 09:37:02;;;;;;;4.57;2.35;;;;;;;;;;4984861;28;20063;-69
2022/05/21 09:39:48;;;;;;;9.52;3.45;;;;;;;;;;4986119;28;20129;-70
2022/05/21 09:45:22;;;;;;;4.10;2.22;;;37.90;59.70;;;;;;4985844;28;20093;-69
2022/05/21 09:47:49;;;;;;;4.63;2.17;;;37.70;41.70;;;;;;4985970;28;20061;-69
2022/05/21 09:50:24;;;;;;;4.50;2.58;;;37.80;42.70;;;;;;4987225;28;20518;-70
2022/05/21 09:52:50;;;;;;;3.13;2.13;;;38.00;59.50;;;;;;4986175;28;20103;-69
2022/05/21 09:55:29;;;;;;;;;;;37.90;42.00;;;;;;4984182;28;20499;-69
2022/05/21 09:58:06;;;;;;;3.85;2.83;;;38.40;41.40;;;;;;4984632;28;19913;-70
2022/05/21 10:00:35;;;;;;;10.30;2.60;;;39.00;55.50;;;;;;4983229;28;20038;-69
2022/05/21 10:03:04;;;;;;;2.55;1.95;;;38.70;40.00;;;;;;4985319;28;20022;-70
2022/05/21 10:05:42;;;;;;;7.65;2.42;;;38.20;40.00;;;;;;4985357;28;20061;-69
2022/05/21 10:11:15;;;;;;;4.10;1.70;;;;;;;;;;4986627;28;20131;-69
2022/05/21 10:13:48;;;;;;;4.22;2.10;;;;;;;;;;4982532;28;20034;-69
2022/05/21 10:16:23;;;;;;;3.45;2.13;;;;;;;;;;4983641;28;20030;-70
2022/05/21 10:19:13;;;;;;;4.47;1.97;;;37.60;42.00;;;;;;4983477;28;20026;-70
2022/05/21 10:21:39;;;;;;;3.92;2.25;;;;;;;;;;4985288;28;20030;-69
2022/05/21 10:24:05;;;;;;;;;;;;;;;;;;4986827;28;20033;-70
2022/05/21 10:26:58;;;;;;;4.18;2.22;;;37.50;42.40;;;;;;4985451;28;19920;-70
2022/05/21 10:29:25;;;;;;;5.47;2.60;;;;;;;;;;4984647;28;20038;-70
2022/05/21 10:32:18;;;;;;;4.15;1.85;;;37.70;42.30;;;;;;4983330;28;20034;-69
2022/05/21 10:34:53;;;;;;;7.28;2.53;;;;;;;;;;4983511;28;20124;-70
2022/05/21 10:37:22;;;;;;;2.97;1.58;;;37.10;58.90;;;;;;4982501;28;20450;-69
2022/05/21 10:40:29;;;;;;;3.10;2.00;;;37.00;42.90;;;;;;4982378;28;20038;-70
2022/05/21 10:43:01;;;;;;;2.60;1.67;;;36.40;44.00;;;;;;4982778;28;20039;-69
2022/05/21 10:45:34;;;;;;;4.95;2.10;;;36.70;43.90;;;;;;4983704;28;20030;-70
2022/05/21 10:48:18;;;;;;;6.10;2.67;;;37.00;42.30;;;;;;4984384;28;20042;-70
2022/05/21 10:50:44;;;;;;;5.93;3.53;;;;;;;;;;4984821;28;20506;-70
2022/05/21 10:53:19;;;;;;;8.43;2.40;;;;;;;;;;4985758;28;20023;-70
2022/05/21 10:55:48;;;;;;;12.00;3.33;;;;;;;;;;4984190;28;20031;-70
2022/05/21 10:58:35;;;;;;;8.45;2.63;;;36.50;43.50;;;;;;4983049;28;20030;-69
2022/05/21 11:01:25;;;;;;;6.03;2.90;;;36.40;42.30;;;;;;4984135;28;20036;-69
2022/05/21 11:04:05;;;;;;;6.15;2.50;;;;;;;;;;4983554;28;20061;-69
2022/05/21 11:06:49;;;;;;;8.57;2.78;;;36.50;44.30;;;;;;4984363;28;20042;-70
2022/05/21 11:09:31;;;;;;;5.45;2.95;;;;;;;;;;4985246;28;20031;-69
2022/05/21 11:12:02;;;;;;;5.63;2.45;;;;;;;;;;4985532;28;20115;-69
2022/05/21 11:14:28;;;;;;;4.65;2.47;;;;;;;;;;4984355;28;20546;-70
2022/05/21 11:17:01;;;;;;;8.50;3.53;;;;;;;;;;4983428;28;20115;-70
2022/05/21 11:19:49;;;;;;;5.72;2.17;;;34.70;46.10;;;;;;4981976;28;20057;-70
2022/05/21 11:22:24;;;;;;;6.65;2.47;;;;;;;;;;4983301;28;20514;-70
2022/05/21 11:25:09;;;;;;;7.37;2.60;;;;;;;;;;4983729;28;20050;-69
2022/05/21 11:27:38;;;;;;;9.07;3.35;;;;;;;;;;4984649;28;20046;-70
2022/05/21 11:30:06;;;;;;;4.10;2.50;;;;;;;;;;4984057;28;20659;-69
2022/05/21 11:38:24;;;;;;;9.43;2.67;;;;;;;;;;4985825;28;20089;-68
2022/05/21 11:43:55;;;;;;;10.48;3.35;;;;;;;;;;4981877;28;20057;-69
2022/05/21 11:46:26;;;;;;;5.53;3.08;;;;;;;;;;4983551;28;20036;-70
2022/05/21 11:48:52;;;;;;;5.50;3.63;;;;;;;;;;4982074;28;22910;-69
2022/05/21 11:51:19;;;;;;;4.13;2.60;;;;;;;;;;4984891;28;20041;-70
2022/05/21 11:53:46;;;;;;;10.10;3.35;;;31.80;71.00;;;;;;4984190;28;20034;-69
2022/05/21 11:56:13;;;;;;;5.53;3.47;;;;;;;;;;4985101;28;20069;-69
2022/05/21 11:58:39;;;;;;;;;;;;;;;;;;4982556;28;20495;-69
2022/05/21 12:01:05;;;;;;;4.63;2.97;;;;;;;;;;4983414;28;19945;-70
2022/05/21 12:03:51;;;;;;;11.20;3.23;;;;;;;;;;4983219;28;20046;-70
2022/05/21 12:06:25;;;;;;;4.78;2.75;;;;;;;;;;4983683;28;20027;-69
2022/05/21 12:08:51;;;;;;;11.63;4.15;;;;;;;;;;4983702;28;20081;-69
2022/05/21 12:11:34;;;;;;;4.20;2.65;;;;;;;;;;4985850;28;20101;-69
2022/05/21 12:14:00;;;;;;;10.60;3.42;;;;;;;;;;4984598;28;20496;-70
2022/05/21 12:16:29;;;;;;;24.87;3.53;;;;;;;;;;4982752;28;20488;-69
2022/05/21 12:18:59;;;;;;;16.90;3.90;;;;;;;;;;4981086;28;20277;-69
2022/05/21 12:21:32;;;;;;;9.10;3.58;;;;;;;;;;4982386;28;20057;-69
2022/05/21 12:24:03;;;;;;;8.30;4.00;;;;;;;;;;4983840;28;20042;-69
2022/05/21 12:26:31;;;;;;;9.25;4.07;;;;;;;;;;4983935;28;20113;-69
2022/05/21 12:28:57;;;;;;;6.25;3.83;;;;;;;;;;4983921;28;20036;-68
2022/05/21 12:31:25;;;;;;;15.30;4.53;;;;;;;;;;4982436;28;20027;-69
2022/05/21 12:34:23;;;;;;;5.43;2.50;;;31.10;55.30;;;;;;4981874;28;20029;-69
2022/05/21 12:36:58;;;;;;;9.27;3.53;;;;;;;;;;4982740;28;20025;-69
2022/05/21 12:39:34;;;;;;;7.25;2.78;;;;;;;;;;4987145;28;20561;-69
2022/05/21 12:42:06;;;;;;;4.93;3.33;;;;;;;;;;4986416;28;20093;-69
2022/05/21 12:44:40;;;;;;;8.40;3.15;;;;;;;;;;4985967;28;20061;-70
2022/05/21 12:47:09;;;;;;;6.38;3.35;;;;;;;;;;4988049;28;20089;-68
2022/05/21 12:49:43;;;;;;;8.88;3.50;;;30.90;56.40;;;;;;4986592;28;20491;-69
2022/05/21 12:52:09;;;;;;;10.05;3.78;;;30.80;54.90;;;;;;4986166;28;20042;-70
2022/05/21 12:54:35;;;;;;;7.50;3.77;;;;;;;;;;4987016;28;20030;-69
2022/05/21 12:57:11;;;;;;;15.43;3.20;;;;;;;;;;4986234;28;20050;-69
2022/05/21 12:59:36;;;;;;;6.30;4.37;;;30.80;73.10;;;;;;4986809;28;20026;-69
2022/05/21 13:02:14;;;;;;;10.57;4.07;;;;;;;;;;4986812;28;20246;-71
2022/05/21 13:04:41;;;;;;;5.32;3.50;;;;;;;;;;4988610;28;20092;-69
2022/05/21 13:07:26;;;;;;;9.15;3.90;;;;;;;;;;4984081;28;20029;-70
2022/05/21 13:09:57;;;;;;;6.55;3.30;;;;;;;;;;4984738;28;20088;-68
2022/05/21 13:12:23;;;;;;;4.20;2.42;;;;;;;;;;4986203;28;20030;-69
2022/05/21 13:14:49;;;;;;;5.10;2.85;;;30.70;72.40;;;;;;4986314;28;20045;-69
2022/05/21 13:17:21;;;;;;;11.40;3.83;;;;;;;;;;4987838;28;20037;-69
2022/05/21 13:19:54;;;;;;;7.22;4.35;;;;;;;;;;4985539;28;20038;-69
2022/05/21 13:22:20;;;;;;;7.75;3.35;;;;;;;;;;4984488;28;20069;-69
2022/05/21 13:24:53;;;;;;;6.27;2.73;;;;;;;;;;4984522;28;20035;-68
2022/05/21 13:27:21;;;;;;;5.30;3.08;;;;;;;;;;4986024;28;20042;-69
2022/05/21 13:29:47;;;;;;;6.47;2.92;;;;;;;;;;4985429;28;20026;-69
2022/05/21 13:32:27;;;;;;;6.90;3.05;;;;;;;;;;4987679;28;20030;-68
2022/05/21 13:34:54;;;;;;;10.05;2.92;;;;;;;;;;4986800;28;20507;-69
2022/05/21 13:37:28;;;;;;;10.13;4.90;;;;;;;;;;4986246;28;20031;-73
2022/05/21 13:39:59;;;;;;;5.88;2.70;;;;;;;;;;4983546;28;20587;-73
2022/05/21 13:42:26;;;;;;;6.30;3.65;;;;;;;;;;4986613;28;20074;-73
2022/05/21 13:44:53;;;;;;;5.65;2.75;;;;;;;;;;4986606;28;20022;-73
2022/05/21 13:47:24;;;;;;;5.60;2.50;;;;;;;;;;4987460;28;20050;-73
2022/05/21 13:49:51;;;;;;;5.07;2.58;;;;;;;;;;4984688;28;20031;-74
2022/05/21 13:52:17;;;;;;;3.75;2.50;;;;;;;;;;4984577;28;20101;-73
2022/05/21 13:54:44;;;;;;;8.27;2.70;;;;;;;;;;4985787;28;20034;-69
2022/05/21 13:57:23;;;;;;;3.25;2.28;;;30.40;53.50;;;;;;4986544;28;20092;-69
2022/05/21 14:00:09;;;;;;;6.47;3.83;;;;;;;;;;4986276;28;20026;-68
2022/05/21 14:02:39;;;;;;;5.75;2.88;;;;;;;;;;4986082;28;20415;-69
2022/05/21 14:05:27;;;;;;;6.57;3.17;;;;;;;;;;4986052;28;20080;-70
2022/05/21 14:07:58;;;;;;;6.70;3.45;;;;;;;;;;4985472;28;20042;-69
2022/05/21 14:10:38;;;;;;;9.45;4.00;;;30.40;53.30;;;;;;4983028;28;20034;-74
2022/05/21 14:13:06;;;;;;;7.18;2.75;;;;;;;;;;4979802;28;20029;-74
2022/05/21 14:15:34;;;;;;;10.68;5.18;;;;;;;;;;4983125;28;20532;-76
2022/05/21 14:18:03;;;;;;;13.18;3.08;;;;;;;;;;4984608;28;20491;-75
2022/05/21 14:20:35;;;;;;;5.95;2.72;;;;;;;;;;4984498;28;20030;-78
2022/05/21 14:23:20;;;;;;;6.63;2.75;;;;;;;;;;4984564;28;20419;-77
2022/05/21 14:25:46;;;;;;;4.25;2.63;;;;;;;;;;4982737;28;20061;-76
2022/05/21 14:28:15;;;;;;;7.70;3.25;;;;;;;;;;4983241;28;20548;-73
2022/05/21 14:30:42;;;;;;;7.32;3.80;;;;;;;;;;4981939;28;20121;-76
2022/05/21 14:33:29;;;;;;;7.20;3.65;;;;;;;;;;4984271;28;20045;-76
2022/05/21 14:35:56;;;;;;;6.68;2.92;;;;;;;;;;4984565;28;20026;-74
2022/05/21 14:38:25;;;;;;;4.38;3.15;;;;;;;;;;4985088;28;20420;-77
2022/05/21 14:40:56;;;;;;;9.13;3.22;;;30.10;55.70;;;;;;4983762;28;20066;-81
2022/05/21 14:43:22;;;;;;;9.98;3.63;;;;;;;;;;4982205;28;20051;-75
2022/05/21 14:45:48;;;;;;;4.82;3.10;;;;;;;;;;4982631;28;20089;-74
2022/05/21 14:48:14;;;;;;;5.60;2.53;;;;;;;;;;4983010;28;20568;-74
2022/05/21 14:53:36;;;;;;;6.03;3.15;;;;;;;;;;4986476;28;20073;-74
2022/05/21 14:56:03;;;;;;;9.13;3.70;;;;;;;;;;4986668;28;20439;-74
2022/05/21 14:58:30;;;;;;;6.00;3.58;;;;;;;;;;4986087;28;20511;-76
2022/05/21 15:00:56;;;;;;;4.15;2.65;;;;;;;;;;4985660;28;20034;-75